Terminal Aerodrome Forecast
Issued by NWS

Home | Current Version | Previous Version | Text Only | Print | Product List | Glossary On
Versions: 1 2 3 4 5 6 7 8 9 10 11 12
561
FTAK31 PAJN 240526
TAFAJN
TAF
PAJN 240526Z 2406/2506 24009KT P6SM VCSH SCT035 BKN050 OVC060
     FM241200 08003KT P6SM VCSH BKN025 OVC035
     FM241700 24007KT P6SM VCSH SCT025 OVC040
     FM250000 13005KT P6SM SCT030 OVC050
     FM250300 09005KT P6SM OVC050=

USA.gov is the U.S. government's official web portal to all federal, state and local government web resources and services.